Time;durP1;ratioP1;P1;durP2;ratioP2;P2;SDS_P1;SDS_P2;PMS_P1;PMS_P2;Temp;Humidity;BMP_temperature;BMP_pressure;BME280_temperature;BME280_humidity;BME280_pressure;Samples;Min_cycle;Max_cycle;Signal;HPM_P1;HPM_P2
2024/02/21 00:01:27;;;;;;;21.17;11.13;;;10.60;99.90;;;;;;5076138;28;20524;-55
2024/02/21 00:03:54;;;;;;;20.97;10.77;;;10.60;99.90;;;;;;5076200;28;20481;-55
2024/02/21 00:06:21;;;;;;;22.97;10.80;;;10.60;99.90;;;;;;5076305;28;20437;-55
2024/02/21 00:08:48;;;;;;;21.60;10.63;;;10.60;99.90;;;;;;5076316;28;20452;-55
2024/02/21 00:11:16;;;;;;;17.77;10.57;;;10.60;99.90;;;;;;5076349;28;20460;-55
2024/02/21 00:13:42;;;;;;;21.30;10.90;;;10.60;99.90;;;;;;5076284;28;20949;-54
2024/02/21 00:16:10;;;;;;;23.70;10.37;;;10.60;99.90;;;;;;5076360;28;20471;-54
2024/02/21 00:18:37;;;;;;;20.20;11.30;;;10.60;99.90;;;;;;5076398;28;20455;-54
2024/02/21 00:21:04;;;;;;;17.87;9.80;;;10.60;99.90;;;;;;5076268;28;20534;-54
2024/02/21 00:23:31;;;;;;;19.47;11.23;;;10.50;99.90;;;;;;5075835;28;20488;-54
2024/02/21 00:25:57;;;;;;;24.57;11.73;;;10.60;99.90;;;;;;5075824;28;20466;-55
2024/02/21 00:28:26;;;;;;;16.77;10.40;;;10.50;99.90;;;;;;5075689;28;20444;-55
2024/02/21 00:30:53;;;;;;;18.03;10.50;;;10.60;99.90;;;;;;5075638;28;20460;-54
2024/02/21 00:33:19;;;;;;;25.87;11.60;;;10.60;99.90;;;;;;5075235;28;20441;-55
2024/02/21 00:35:46;;;;;;;18.63;10.80;;;10.50;99.90;;;;;;5075205;28;20455;-55
2024/02/21 00:38:13;;;;;;;18.83;10.40;;;10.50;99.90;;;;;;5075255;28;20445;-54
2024/02/21 00:40:40;;;;;;;24.60;10.60;;;10.50;99.90;;;;;;5075444;28;20832;-55
2024/02/21 00:43:07;;;;;;;23.83;10.77;;;10.50;99.90;;;;;;5075314;28;20856;-55
2024/02/21 00:45:35;;;;;;;21.90;11.50;;;10.50;99.90;;;;;;5075331;28;20447;-55
2024/02/21 00:48:02;;;;;;;24.97;11.97;;;10.50;99.90;;;;;;5075608;28;20495;-55
2024/02/21 00:50:28;;;;;;;18.83;10.37;;;10.40;99.90;;;;;;5074862;28;20840;-55
2024/02/21 00:52:55;;;;;;;25.07;11.90;;;10.40;99.90;;;;;;5074969;28;20436;-55
2024/02/21 00:55:22;;;;;;;16.87;10.40;;;10.40;99.90;;;;;;5074739;28;20462;-55
2024/02/21 00:57:49;;;;;;;22.83;11.23;;;10.40;99.90;;;;;;5074973;28;20449;-55
2024/02/21 01:00:16;;;;;;;22.47;10.43;;;10.40;99.90;;;;;;5075064;28;20461;-54
2024/02/21 01:02:44;;;;;;;19.63;10.07;;;10.40;99.90;;;;;;5074731;28;20440;-54
2024/02/21 01:05:11;;;;;;;23.80;10.27;;;10.50;99.90;;;;;;5074970;28;20451;-55
2024/02/21 01:07:38;;;;;;;24.73;9.43;;;10.50;99.90;;;;;;5074654;28;20957;-55
2024/02/21 01:10:06;;;;;;;24.40;11.13;;;10.50;99.90;;;;;;5074432;28;20469;-55
2024/02/21 01:12:32;;;;;;;16.07;9.97;;;10.60;99.90;;;;;;5074547;28;20441;-55
2024/02/21 01:14:59;;;;;;;21.60;11.20;;;10.60;99.90;;;;;;5074791;28;20818;-55
2024/02/21 01:17:26;;;;;;;21.40;10.00;;;10.60;99.90;;;;;;5074960;28;20451;-55
2024/02/21 01:19:54;;;;;;;19.80;9.67;;;10.60;99.90;;;;;;5074610;28;20465;-54
2024/02/21 01:22:21;;;;;;;17.97;10.60;;;10.60;99.90;;;;;;5074530;28;20836;-55
2024/02/21 01:24:48;;;;;;;23.60;10.00;;;10.70;99.90;;;;;;5074518;28;20480;-54
2024/02/21 01:27:14;;;;;;;23.33;10.10;;;10.70;99.90;;;;;;5074121;28;20445;-55
2024/02/21 01:29:41;;;;;;;21.90;9.53;;;10.70;99.90;;;;;;5074518;28;20471;-55
2024/02/21 01:32:08;;;;;;;19.43;10.37;;;10.70;99.90;;;;;;5074345;28;20956;-55
2024/02/21 01:34:35;;;;;;;24.23;9.63;;;10.80;99.90;;;;;;5074740;28;20437;-55
2024/02/21 01:37:04;;;;;;;21.93;9.60;;;10.80;99.90;;;;;;5074511;28;20441;-55
2024/02/21 01:39:31;;;;;;;22.50;9.30;;;10.80;99.90;;;;;;5074105;28;20982;-55
2024/02/21 01:41:58;;;;;;;16.40;9.33;;;10.90;99.90;;;;;;5074275;28;20440;-55
2024/02/21 01:44:25;;;;;;;22.93;8.57;;;10.90;99.90;;;;;;5074440;28;20480;-55
2024/02/21 01:46:52;;;;;;;16.00;9.23;;;10.90;99.90;;;;;;5073922;28;20821;-55
2024/02/21 01:49:19;;;;;;;20.00;9.30;;;10.90;99.90;;;;;;5073999;28;20448;-55
2024/02/21 01:51:46;;;;;;;14.93;8.10;;;10.90;99.90;;;;;;5074432;28;20455;-54
2024/02/21 01:54:15;;;;;;;19.40;9.17;;;10.80;99.90;;;;;;5074069;28;20947;-55
2024/02/21 01:56:43;;;;;;;22.23;9.90;;;10.90;99.90;;;;;;5074010;28;20449;-55
2024/02/21 01:59:11;;;;;;;16.93;9.97;;;10.90;99.90;;;;;;5073784;28;20449;-55
2024/02/21 02:01:37;;;;;;;20.93;10.23;;;10.80;99.90;;;;;;5073819;28;20441;-55
2024/02/21 02:04:05;;;;;;;18.53;10.87;;;10.80;99.90;;;;;;5073672;28;20571;-54
2024/02/21 02:06:32;;;;;;;17.07;9.30;;;10.80;99.90;;;;;;5073331;28;21010;-56
2024/02/21 02:08:59;;;;;;;17.67;9.70;;;10.80;99.90;;;;;;5073369;28;20440;-55
2024/02/21 02:11:28;;;;;;;15.83;9.00;;;10.80;99.90;;;;;;5073593;28;20457;-55
2024/02/21 02:13:55;;;;;;;17.70;10.33;;;10.70;99.90;;;;;;5073675;28;20817;-55
2024/02/21 02:16:21;;;;;;;15.27;9.50;;;10.70;99.90;;;;;;5073193;28;20444;-55
2024/02/21 02:18:48;;;;;;;18.13;10.20;;;10.70;99.90;;;;;;5073210;28;20445;-55
2024/02/21 02:21:29;;;;;;;17.03;10.13;;;10.70;99.90;;;;;;5073429;28;20475;-55
2024/02/21 02:23:58;;;;;;;19.47;10.40;;;10.70;99.90;;;;;;5073189;28;20978;-55
2024/02/21 02:26:25;;;;;;;20.93;10.33;;;10.70;99.90;;;;;;5073409;28;20451;-55
2024/02/21 02:28:51;;;;;;;19.87;9.40;;;10.70;99.90;;;;;;5073239;28;20445;-55
2024/02/21 02:31:18;;;;;;;14.47;9.63;;;10.70;99.90;;;;;;5073306;28;20470;-55
2024/02/21 02:33:45;;;;;;;21.63;9.10;;;10.70;99.90;;;;;;5073365;28;20443;-55
2024/02/21 02:36:12;;;;;;;14.43;10.33;;;10.70;99.90;;;;;;5073277;28;20441;-55
2024/02/21 02:38:39;;;;;;;16.67;8.70;;;10.70;99.90;;;;;;5073371;28;20444;-55
2024/02/21 02:41:07;;;;;;;20.80;9.27;;;10.70;99.90;;;;;;5073088;28;20464;-55
2024/02/21 02:43:34;;;;;;;19.03;9.97;;;10.70;99.90;;;;;;5073088;28;20846;-55
2024/02/21 02:46:00;;;;;;;18.37;9.40;;;10.70;99.90;;;;;;5073330;28;20444;-55
2024/02/21 02:48:27;;;;;;;18.53;9.60;;;10.70;99.90;;;;;;5073209;28;20447;-55
2024/02/21 02:50:54;;;;;;;13.50;9.10;;;10.70;99.90;;;;;;5073060;28;20464;-56
2024/02/21 02:53:21;;;;;;;20.67;9.80;;;10.70;99.90;;;;;;5072831;28;20978;-56
2024/02/21 02:55:47;;;;;;;18.50;9.17;;;10.70;99.90;;;;;;5073247;28;20452;-56
2024/02/21 02:58:15;;;;;;;18.60;9.03;;;10.70;99.90;;;;;;5072720;28;20821;-56
2024/02/21 03:00:42;;;;;;;14.40;8.50;;;10.70;99.90;;;;;;5072965;28;20467;-56
2024/02/21 03:03:09;;;;;;;15.87;8.50;;;10.70;99.90;;;;;;5077026;28;20440;-56
2024/02/21 03:05:36;;;;;;;17.00;9.37;;;10.70;99.90;;;;;;5077243;28;20519;-56
2024/02/21 03:08:06;;;;;;;13.53;8.70;;;10.70;99.90;;;;;;5077052;28;20453;-56
2024/02/21 03:10:33;;;;;;;18.83;8.57;;;10.60;99.90;;;;;;5076769;28;21039;-55
2024/02/21 03:13:00;;;;;;;20.63;9.27;;;10.60;99.90;;;;;;5076864;28;20950;-55
2024/02/21 03:15:28;;;;;;;15.03;8.53;;;10.60;99.90;;;;;;5076864;28;20436;-55
2024/02/21 03:17:55;;;;;;;17.67;8.20;;;10.60;99.90;;;;;;5076902;28;20441;-55
2024/02/21 03:20:22;;;;;;;14.80;7.90;;;10.60;99.90;;;;;;5076506;28;20551;-55
2024/02/21 03:22:48;;;;;;;21.40;9.30;;;10.60;99.90;;;;;;5076623;28;20803;-55
2024/02/21 03:25:15;;;;;;;16.30;8.23;;;10.60;99.90;;;;;;5076703;28;20549;-55
2024/02/21 03:27:43;;;;;;;15.07;8.30;;;10.60;99.90;;;;;;5076765;28;20448;-55
2024/02/21 03:30:10;;;;;;;16.70;8.60;;;10.50;99.90;;;;;;5076658;28;20468;-55
2024/02/21 03:32:39;;;;;;;15.97;7.83;;;10.50;99.90;;;;;;5080078;28;20504;-55
2024/02/21 03:35:06;;;;;;;23.07;8.93;;;10.50;99.90;;;;;;5080157;28;20445;-55
2024/02/21 03:37:33;;;;;;;16.90;8.00;;;10.60;99.90;;;;;;5076944;28;20459;-55
2024/02/21 03:40:00;;;;;;;18.50;7.93;;;10.50;99.90;;;;;;5076691;28;20498;-55
2024/02/21 03:42:29;;;;;;;19.03;8.13;;;10.50;99.90;;;;;;5076279;28;20816;-55
2024/02/21 03:44:56;;;;;;;11.77;7.63;;;10.50;99.90;;;;;;5076275;28;20928;-55
2024/02/21 03:47:23;;;;;;;24.67;8.90;;;10.40;99.90;;;;;;5076666;28;20449;-55
2024/02/21 03:49:51;;;;;;;13.30;7.70;;;10.40;99.90;;;;;;5076513;28;20473;-55
2024/02/21 03:52:18;;;;;;;18.27;8.63;;;10.40;99.90;;;;;;5076423;28;20441;-55
2024/02/21 03:54:44;;;;;;;14.77;7.77;;;10.40;99.90;;;;;;5075051;28;20456;-55
2024/02/21 03:57:11;;;;;;;16.87;7.70;;;10.40;99.90;;;;;;5075052;28;20452;-55
2024/02/21 03:59:39;;;;;;;19.67;8.17;;;10.40;99.90;;;;;;5074940;28;20469;-55
2024/02/21 04:02:08;;;;;;;13.60;7.30;;;10.40;99.90;;;;;;5074969;28;20547;-55
2024/02/21 04:04:36;;;;;;;12.80;7.63;;;10.40;99.90;;;;;;5074897;28;20525;-55
2024/02/21 04:07:06;;;;;;;11.87;7.63;;;10.40;99.90;;;;;;5074830;28;20498;-55
2024/02/21 04:09:33;;;;;;;13.63;7.10;;;10.40;99.90;;;;;;5074784;28;20479;-55
2024/02/21 04:12:00;;;;;;;18.97;7.83;;;10.40;99.90;;;;;;5074483;28;20452;-55
2024/02/21 04:14:27;;;;;;;18.43;7.40;;;10.40;99.90;;;;;;5074795;28;20439;-55
2024/02/21 04:16:54;;;;;;;14.80;7.87;;;10.40;99.90;;;;;;5074771;28;20498;-55
2024/02/21 04:19:21;;;;;;;16.10;7.40;;;10.40;99.90;;;;;;5074821;28;21049;-55
2024/02/21 04:21:48;;;;;;;18.80;8.50;;;10.40;99.90;;;;;;5073543;28;20441;-56
2024/02/21 04:24:16;;;;;;;17.63;7.50;;;10.40;99.90;;;;;;5072769;28;20499;-56
2024/02/21 04:26:43;;;;;;;12.40;7.40;;;10.50;99.90;;;;;;5074761;28;20487;-55
2024/02/21 04:29:10;;;;;;;18.50;8.03;;;10.50;99.90;;;;;;5074450;28;20452;-55
2024/02/21 04:31:37;;;;;;;18.03;8.43;;;10.50;99.90;;;;;;5074469;28;20448;-55
2024/02/21 04:34:04;;;;;;;15.53;7.20;;;10.50;99.90;;;;;;5074615;28;20433;-55
2024/02/21 04:36:30;;;;;;;19.43;6.93;;;10.50;99.90;;;;;;5074141;28;20437;-56
2024/02/21 04:38:57;;;;;;;15.37;7.00;;;10.50;99.90;;;;;;5074301;28;20441;-55
2024/02/21 04:41:25;;;;;;;15.30;8.30;;;10.50;99.90;;;;;;5074393;28;20461;-55
2024/02/21 04:43:52;;;;;;;22.80;9.20;;;10.50;99.90;;;;;;5074191;28;20442;-55
2024/02/21 04:46:19;;;;;;;14.00;7.77;;;10.50;99.90;;;;;;5073949;28;20906;-55
2024/02/21 04:48:46;;;;;;;12.40;6.60;;;10.50;99.90;;;;;;5074178;28;20444;-56
2024/02/21 04:51:14;;;;;;;13.50;7.77;;;10.50;99.90;;;;;;5073965;28;20464;-55
2024/02/21 04:53:41;;;;;;;17.33;7.13;;;10.50;99.90;;;;;;5031788;28;1216693;-55
2024/02/21 04:56:08;;;;;;;17.97;7.03;;;10.50;99.90;;;;;;5075324;28;20198;-55
2024/02/21 04:58:39;;;;;;;14.23;7.23;;;10.60;99.90;;;;;;5074700;28;20453;-55
2024/02/21 05:01:06;;;;;;;12.20;9.00;;;10.60;99.90;;;;;;5074699;28;20460;-55
2024/02/21 05:03:33;;;;;;;16.13;7.70;;;10.60;99.90;;;;;;5074604;28;20996;-55
2024/02/21 05:06:00;;;;;;;14.30;6.70;;;10.60;99.90;;;;;;5074721;28;20484;-55
2024/02/21 05:08:27;;;;;;;13.60;8.20;;;10.60;99.90;;;;;;5074429;28;20441;-55
2024/02/21 05:10:54;;;;;;;17.27;7.70;;;10.60;99.90;;;;;;5074631;28;20472;-55
2024/02/21 05:13:21;;;;;;;14.17;7.33;;;10.60;99.90;;;;;;5074453;28;20849;-55
2024/02/21 05:15:49;;;;;;;14.37;7.83;;;10.60;99.90;;;;;;5074874;28;20440;-55
2024/02/21 05:18:16;;;;;;;14.13;7.60;;;10.60;99.90;;;;;;5074334;28;20527;-55
2024/02/21 05:20:43;;;;;;;10.00;6.17;;;10.60;99.90;;;;;;5074547;28;20467;-55
2024/02/21 05:23:10;;;;;;;14.10;6.97;;;10.60;99.90;;;;;;5074413;28;20448;-55
2024/02/21 05:25:37;;;;;;;15.53;8.10;;;10.60;99.90;;;;;;5073841;28;20492;-55
2024/02/21 05:28:06;;;;;;;15.23;7.17;;;10.60;99.90;;;;;;5074665;28;20547;-55
2024/02/21 05:30:32;;;;;;;15.40;7.27;;;10.60;99.90;;;;;;5074284;28;20475;-56
2024/02/21 05:33:06;;;;;;;14.07;9.00;;;10.60;99.90;;;;;;5074225;28;20958;-55
2024/02/21 05:35:33;;;;;;;12.27;7.80;;;10.60;99.90;;;;;;5074947;28;20440;-55
2024/02/21 05:38:00;;;;;;;15.20;7.27;;;10.60;99.90;;;;;;5074041;28;20447;-55
2024/02/21 05:40:27;;;;;;;18.20;7.00;;;10.60;99.90;;;;;;5073983;28;20903;-55
2024/02/21 05:42:54;;;;;;;11.80;6.73;;;10.60;99.90;;;;;;5074235;28;20452;-56
2024/02/21 05:45:20;;;;;;;16.37;6.80;;;10.60;99.90;;;;;;5074613;28;20481;-56
2024/02/21 05:47:47;;;;;;;12.23;6.60;;;10.60;99.90;;;;;;5073932;28;20448;-55
2024/02/21 05:50:15;;;;;;;9.80;7.27;;;10.60;99.90;;;;;;5073938;28;21009;-55
2024/02/21 05:52:42;;;;;;;14.23;7.10;;;10.60;99.90;;;;;;5073644;28;20444;-55
2024/02/21 05:55:09;;;;;;;16.77;7.23;;;10.60;99.90;;;;;;5073600;28;20970;-55
2024/02/21 05:57:36;;;;;;;14.97;6.50;;;10.60;99.90;;;;;;5073842;28;20444;-55
2024/02/21 06:00:06;;;;;;;10.53;6.20;;;10.70;99.90;;;;;;5073810;28;20468;-55
2024/02/21 06:02:33;;;;;;;10.97;6.00;;;10.60;99.90;;;;;;5073746;28;20531;-55
2024/02/21 06:04:59;;;;;;;10.23;6.50;;;10.60;99.90;;;;;;5073713;28;20498;-55
2024/02/21 06:07:28;;;;;;;17.67;7.03;;;10.60;99.90;;;;;;5073656;28;20440;-54
2024/02/21 06:09:54;;;;;;;14.23;5.70;;;10.60;99.90;;;;;;5073538;28;20555;-55
2024/02/21 06:12:21;;;;;;;11.70;7.00;;;10.70;99.90;;;;;;5074378;28;20449;-55
2024/02/21 06:14:48;;;;;;;12.90;6.03;;;10.70;99.90;;;;;;5073676;28;20514;-55
2024/02/21 06:17:15;;;;;;;12.10;6.67;;;10.70;99.90;;;;;;5073533;28;20447;-55
2024/02/21 06:19:44;;;;;;;15.87;7.00;;;10.70;99.90;;;;;;5073540;28;20465;-55
2024/02/21 06:22:10;;;;;;;20.20;6.50;;;10.60;99.90;;;;;;5073218;28;20447;-55
2024/02/21 06:24:39;;;;;;;10.23;6.13;;;10.70;99.90;;;;;;5073355;28;20484;-55
2024/02/21 06:27:06;;;;;;;9.93;5.63;;;10.70;99.90;;;;;;5073112;28;20844;-55
2024/02/21 06:29:33;;;;;;;12.00;5.50;;;10.70;99.90;;;;;;5073247;28;20472;-55
2024/02/21 06:32:00;;;;;;;8.37;5.57;;;10.70;99.90;;;;;;5073692;28;20527;-55
2024/02/21 06:34:27;;;;;;;14.90;6.30;;;10.70;99.90;;;;;;5073103;28;20961;-55
2024/02/21 06:36:54;;;;;;;8.40;5.30;;;10.70;99.90;;;;;;5073245;28;20811;-55
2024/02/21 06:39:23;;;;;;;13.53;6.50;;;10.70;99.90;;;;;;5073549;28;20554;-55
2024/02/21 06:41:52;;;;;;;8.00;5.73;;;10.60;99.90;;;;;;5072994;28;20970;-55
2024/02/21 06:44:19;;;;;;;11.27;5.40;;;10.60;99.90;;;;;;5072917;28;20456;-55
2024/02/21 06:46:46;;;;;;;7.23;4.70;;;10.60;99.90;;;;;;5072829;28;20519;-54
2024/02/21 06:49:15;;;;;;;12.27;5.13;;;10.60;99.90;;;;;;5073286;28;20451;-55
2024/02/21 06:51:42;;;;;;;8.37;4.60;;;10.60;99.90;;;;;;5073384;28;20456;-54
2024/02/21 06:54:09;;;;;;;11.83;5.47;;;10.60;99.90;;;;;;5073559;28;20460;-55
2024/02/21 06:56:37;;;;;;;9.60;4.97;;;10.60;99.90;;;;;;5073318;28;20938;-55
2024/02/21 06:59:05;;;;;;;13.23;6.17;;;10.60;99.90;;;;;;5073472;28;20456;-55
2024/02/21 07:01:32;;;;;;;8.00;5.00;;;10.50;99.90;;;;;;5073409;28;20830;-56
2024/02/21 07:03:59;;;;;;;11.77;5.10;;;10.50;99.90;;;;;;5073302;28;20440;-55
2024/02/21 07:06:25;;;;;;;10.63;5.20;;;10.60;99.90;;;;;;5072715;28;20855;-55
2024/02/21 07:08:52;;;;;;;10.07;4.53;;;10.50;99.90;;;;;;5072713;28;20820;-54
2024/02/21 07:11:19;;;;;;;7.40;4.77;;;10.50;99.90;;;;;;5070103;28;20476;-55
2024/02/21 07:13:46;;;;;;;16.97;5.40;;;10.50;99.90;;;;;;5053057;28;20453;-55
2024/02/21 07:16:14;;;;;;;8.80;5.67;;;10.60;99.90;;;;;;5052831;28;20434;-54
2024/02/21 07:18:41;;;;;;;11.47;5.20;;;10.60;99.90;;;;;;5053009;28;20441;-55
2024/02/21 07:21:07;;;;;;;8.17;4.87;;;10.60;99.90;;;;;;5052933;28;20461;-55
2024/02/21 07:23:34;;;;;;;15.27;5.57;;;10.60;99.90;;;;;;5053085;28;20448;-55
2024/02/21 07:26:01;;;;;;;13.17;5.20;;;10.60;99.90;;;;;;5051974;28;20987;-55
2024/02/21 07:28:28;;;;;;;8.77;5.20;;;10.50;99.90;;;;;;5052680;28;20452;-54
2024/02/21 07:30:55;;;;;;;15.03;5.03;;;10.40;99.90;;;;;;5052812;28;20497;-54
2024/02/21 07:33:23;;;;;;;12.50;4.30;;;10.40;99.90;;;;;;5052502;28;20800;-55
2024/02/21 07:35:50;;;;;;;14.40;5.00;;;10.40;99.90;;;;;;5053042;28;20441;-55
2024/02/21 07:38:18;;;;;;;8.63;4.20;;;10.30;99.90;;;;;;5052833;28;20448;-54
2024/02/21 07:40:45;;;;;;;14.50;4.70;;;10.20;99.90;;;;;;5052683;28;20480;-55
2024/02/21 07:43:12;;;;;;;11.07;5.60;;;10.10;99.90;;;;;;5054075;28;20433;-55
2024/02/21 07:45:39;;;;;;;9.80;4.60;;;10.10;99.90;;;;;;5052561;28;20477;-55
2024/02/21 07:48:06;;;;;;;8.77;4.30;;;10.10;99.90;;;;;;5054574;28;20457;-55
2024/02/21 07:50:35;;;;;;;16.87;4.50;;;10.10;99.90;;;;;;5056157;28;20473;-55
2024/02/21 07:53:02;;;;;;;13.63;5.60;;;10.10;99.90;;;;;;5056824;28;20930;-56
2024/02/21 07:55:28;;;;;;;14.40;6.93;;;10.10;99.90;;;;;;5056258;28;20470;-54
2024/02/21 07:57:55;;;;;;;13.13;5.70;;;10.10;99.90;;;;;;5055947;28;20449;-55
2024/02/21 08:00:23;;;;;;;12.43;4.93;;;10.10;99.90;;;;;;5056092;28;20461;-55
2024/02/21 08:02:50;;;;;;;17.53;6.00;;;10.10;99.90;;;;;;5056206;28;20449;-55
2024/02/21 08:05:17;;;;;;;17.20;6.13;;;10.10;99.90;;;;;;5056328;28;20487;-55
2024/02/21 08:07:45;;;;;;;9.93;5.37;;;10.10;99.90;;;;;;5056141;28;20442;-55
2024/02/21 08:10:12;;;;;;;11.07;6.77;;;10.10;99.90;;;;;;5056095;28;20552;-55
2024/02/21 08:12:39;;;;;;;9.70;5.53;;;10.20;99.90;;;;;;5055943;28;20445;-55
2024/02/21 08:15:08;;;;;;;15.40;7.20;;;10.20;99.90;;;;;;5055901;28;20473;-55
2024/02/21 08:17:34;;;;;;;12.83;6.07;;;10.30;99.90;;;;;;5055829;28;20807;-55
2024/02/21 08:20:02;;;;;;;12.70;5.10;;;10.30;99.90;;;;;;5055737;28;20461;-55
2024/02/21 08:22:28;;;;;;;12.77;5.97;;;10.40;99.90;;;;;;5055602;28;20820;-55
2024/02/21 08:24:56;;;;;;;8.73;5.00;;;10.40;99.90;;;;;;5055655;28;20442;-55
2024/02/21 08:27:23;;;;;;;10.60;4.63;;;10.50;99.90;;;;;;5055691;28;20456;-55
2024/02/21 08:29:50;;;;;;;9.23;4.63;;;10.50;99.90;;;;;;5055234;28;20462;-55
2024/02/21 08:32:17;;;;;;;8.73;5.47;;;10.50;99.90;;;;;;5055432;28;20445;-55
2024/02/21 08:34:44;;;;;;;14.93;5.00;;;10.60;99.90;;;;;;5055170;28;20441;-55
2024/02/21 08:37:11;;;;;;;13.13;4.73;;;10.60;99.90;;;;;;5055139;28;20959;-55
2024/02/21 08:39:38;;;;;;;15.67;4.57;;;10.60;99.90;;;;;;5055037;28;20931;-55
2024/02/21 08:42:07;;;;;;;7.13;3.93;;;10.60;99.90;;;;;;5056227;28;20450;-56
2024/02/21 08:44:33;;;;;;;5.63;3.83;;;10.70;99.90;;;;;;5055414;28;20456;-56
2024/02/21 08:47:03;;;;;;;8.43;4.63;;;10.60;99.90;;;;;;5055421;28;20491;-55
2024/02/21 08:49:31;;;;;;;6.00;4.40;;;10.70;99.90;;;;;;5054945;28;20450;-55
2024/02/21 08:51:57;;;;;;;9.27;4.27;;;10.70;99.90;;;;;;5055139;28;20445;-56
2024/02/21 08:54:24;;;;;;;11.93;4.87;;;10.80;99.90;;;;;;5055103;28;20457;-56
2024/02/21 08:56:51;;;;;;;9.87;4.57;;;10.90;99.90;;;;;;5055163;28;20446;-56
2024/02/21 08:59:20;;;;;;;16.13;5.00;;;11.00;99.90;;;;;;5053751;28;20441;-56
2024/02/21 09:01:47;;;;;;;8.20;4.30;;;11.00;99.90;;;;;;5055071;28;20456;-56
2024/02/21 09:04:13;;;;;;;11.23;4.50;;;11.10;99.90;;;;;;5055045;28;20445;-56
2024/02/21 09:06:42;;;;;;;7.43;4.20;;;11.20;99.90;;;;;;5054803;28;20580;-55
2024/02/21 09:09:09;;;;;;;8.00;3.80;;;11.30;99.90;;;;;;5054572;28;20798;-56
2024/02/21 09:11:37;;;;;;;7.40;3.80;;;11.20;99.90;;;;;;5055033;28;20473;-55
2024/02/21 09:14:04;;;;;;;8.57;4.37;;;11.30;99.90;;;;;;5054465;28;20948;-56
2024/02/21 09:16:32;;;;;;;9.43;3.87;;;11.30;99.90;;;;;;5054888;28;20450;-55
2024/02/21 09:19:00;;;;;;;9.03;4.50;;;11.30;99.90;;;;;;5055397;28;20445;-56
2024/02/21 09:21:27;;;;;;;9.90;4.27;;;11.30;99.90;;;;;;5054230;28;20469;-56
2024/02/21 09:23:54;;;;;;;25.43;5.13;;;11.30;99.90;;;;;;5054718;28;20540;-55
2024/02/21 09:26:21;;;;;;;9.60;3.77;;;11.30;99.90;;;;;;5054426;28;20485;-55
2024/02/21 09:28:48;;;;;;;5.83;3.67;;;11.30;99.90;;;;;;5054587;28;20437;-55
2024/02/21 09:31:15;;;;;;;8.97;3.60;;;11.40;99.90;;;;;;5054298;28;20465;-55
2024/02/21 09:33:43;;;;;;;7.30;3.17;;;11.30;99.90;;;;;;5054519;28;20442;-55
2024/02/21 09:36:10;;;;;;;8.60;3.13;;;11.40;99.90;;;;;;5054666;28;20448;-55
2024/02/21 09:38:37;;;;;;;9.73;3.73;;;11.40;99.90;;;;;;5054328;28;20503;-55
2024/02/21 09:41:12;;;;;;;10.10;3.60;;;11.40;99.90;;;;;;5054299;28;20466;-55
2024/02/21 09:43:42;;;;;;;9.20;3.43;;;11.50;99.90;;;;;;5054483;28;20425;-55
2024/02/21 09:46:14;;;;;;;7.97;3.70;;;11.60;99.70;;;;;;5054070;28;20469;-55
2024/02/21 09:48:59;;;;;;;7.33;3.30;;;11.70;99.60;;;;;;5053790;28;20972;-55
2024/02/21 09:51:28;;;;;;;8.00;3.20;;;11.80;99.60;;;;;;5053597;28;20987;-55
2024/02/21 09:53:56;;;;;;;9.33;3.07;;;11.90;99.40;;;;;;5053683;28;20465;-55
2024/02/21 09:56:23;;;;;;;9.07;4.20;;;12.00;99.10;;;;;;5054096;28;20437;-55
2024/02/21 09:58:49;;;;;;;9.00;3.10;;;12.10;98.50;;;;;;5053676;28;20818;-55
2024/02/21 10:01:16;;;;;;;8.00;3.37;;;12.10;98.50;;;;;;5054047;28;20460;-55
2024/02/21 10:03:44;;;;;;;4.50;3.00;;;12.10;98.20;;;;;;5053866;28;20823;-55
2024/02/21 10:06:11;;;;;;;6.30;3.10;;;12.10;98.20;;;;;;5053836;28;20489;-55
2024/02/21 10:08:38;;;;;;;4.90;3.07;;;12.10;97.70;;;;;;5054186;28;20817;-55
2024/02/21 10:11:05;;;;;;;6.77;3.30;;;12.10;97.80;;;;;;5053655;28;20842;-55
2024/02/21 10:13:32;;;;;;;6.53;3.33;;;12.10;97.90;;;;;;5053876;28;20455;-55
2024/02/21 10:16:03;;;;;;;6.83;3.40;;;12.20;97.80;;;;;;5053769;28;20524;-55
2024/02/21 10:18:30;;;;;;;5.30;3.30;;;12.20;97.70;;;;;;5053490;28;20940;-55
2024/02/21 10:21:08;;;;;;;5.20;3.23;;;12.30;97.60;;;;;;5053551;28;20468;-55
2024/02/21 10:23:45;;;;;;;6.10;2.90;;;12.40;97.90;;;;;;5053593;28;20429;-55
2024/02/21 10:26:12;;;;;;;7.50;3.77;;;12.40;97.90;;;;;;5053362;28;21058;-54
2024/02/21 10:28:41;;;;;;;8.73;3.33;;;12.50;97.90;;;;;;5053483;28;20441;-55
2024/02/21 10:31:09;;;;;;;7.63;2.60;;;12.70;97.60;;;;;;5053256;28;20461;-55
2024/02/21 10:33:36;;;;;;;8.47;2.90;;;12.80;97.40;;;;;;5053370;28;20449;-55
2024/02/21 10:36:14;;;;;;;8.40;3.40;;;12.80;97.50;;;;;;5053406;28;20445;-55
2024/02/21 10:38:41;;;;;;;6.13;2.90;;;12.80;97.00;;;;;;5053378;28;20433;-55
2024/02/21 10:41:08;;;;;;;5.93;2.80;;;12.80;96.60;;;;;;5053449;28;20469;-55
2024/02/21 10:43:41;;;;;;;10.73;3.10;;;12.80;96.60;;;;;;5053337;28;20958;-55
2024/02/21 10:46:09;;;;;;;4.27;2.80;;;12.80;96.40;;;;;;5053226;28;20477;-55
2024/02/21 10:48:44;;;;;;;8.37;3.30;;;12.80;96.50;;;;;;5053144;28;20445;-55
2024/02/21 10:51:20;;;;;;;5.33;3.23;;;12.90;96.60;;;;;;5053236;28;20461;-55
2024/02/21 10:53:55;;;;;;;5.70;3.17;;;13.00;96.40;;;;;;5052870;28;20962;-55
2024/02/21 10:56:29;;;;;;;2.97;2.53;;;13.10;96.00;;;;;;5053003;28;20432;-55
2024/02/21 10:58:58;;;;;;;5.67;2.73;;;13.20;95.80;;;;;;5052923;28;20517;-55
2024/02/21 11:01:27;;;;;;;11.97;4.67;;;13.30;95.30;;;;;;5053146;28;20465;-55
2024/02/21 11:03:56;;;;;;;8.03;3.33;;;13.40;95.10;;;;;;5052831;28;20450;-55
2024/02/21 11:06:25;;;;;;;4.53;2.60;;;13.50;95.30;;;;;;5052702;28;20854;-55
2024/02/21 11:09:02;;;;;;;7.90;3.30;;;13.60;94.30;;;;;;5052706;28;20939;-55
2024/02/21 11:11:29;;;;;;;6.43;2.13;;;13.60;94.10;;;;;;5052896;28;20523;-55
2024/02/21 11:14:06;;;;;;;5.73;2.93;;;13.70;93.90;;;;;;5052637;28;21011;-55
2024/02/21 11:16:37;;;;;;;4.27;2.50;;;13.70;93.70;;;;;;5052740;28;20426;-55
2024/02/21 11:19:09;;;;;;;8.37;3.10;;;13.80;93.80;;;;;;5052734;28;20433;-55
2024/02/21 11:21:38;;;;;;;6.37;2.60;;;13.80;93.70;;;;;;5052826;28;20873;-55
2024/02/21 11:24:05;;;;;;;5.70;3.90;;;13.80;93.50;;;;;;5056598;28;20880;-55
2024/02/21 11:26:33;;;;;;;5.90;3.20;;;13.80;93.40;;;;;;5056729;28;20873;-55
2024/02/21 11:29:01;;;;;;;8.00;4.10;;;13.80;93.20;;;;;;5056820;28;20447;-55
2024/02/21 11:31:28;;;;;;;6.27;3.00;;;13.70;92.60;;;;;;5056622;28;20465;-55
2024/02/21 11:33:55;;;;;;;6.73;2.97;;;13.70;92.90;;;;;;5056626;28;20445;-54
2024/02/21 11:36:28;;;;;;;7.30;3.17;;;13.70;92.80;;;;;;5056802;28;20449;-55
2024/02/21 11:39:05;;;;;;;5.80;3.17;;;13.60;92.70;;;;;;5056394;28;20449;-55
2024/02/21 11:41:32;;;;;;;7.93;3.80;;;13.60;92.80;;;;;;5056223;28;20841;-55
2024/02/21 11:43:59;;;;;;;7.90;3.30;;;13.60;92.70;;;;;;5056127;28;20961;-55
2024/02/21 11:46:25;;;;;;;6.80;3.20;;;13.60;92.60;;;;;;5056457;28;20822;-55
2024/02/21 11:48:52;;;;;;;8.37;3.80;;;13.60;92.50;;;;;;5056390;28;20442;-55
2024/02/21 11:51:26;;;;;;;9.17;3.90;;;13.70;93.00;;;;;;5056181;28;20461;-55
2024/02/21 11:53:53;;;;;;;9.37;3.60;;;13.60;92.60;;;;;;5055873;28;20940;-55
2024/02/21 11:56:22;;;;;;;5.10;3.17;;;13.60;92.20;;;;;;5056302;28;20794;-55
2024/02/21 11:58:50;;;;;;;5.83;3.00;;;13.70;92.70;;;;;;5056235;28;20559;-55
2024/02/21 12:01:16;;;;;;;7.93;3.20;;;13.70;92.20;;;;;;5056122;28;20461;-55
2024/02/21 12:03:49;;;;;;;5.87;3.33;;;13.70;91.90;;;;;;5056117;28;20446;-55
2024/02/21 12:06:19;;;;;;;5.80;3.40;;;13.80;91.50;;;;;;5056046;28;20783;-55
2024/02/21 12:08:46;;;;;;;8.23;4.13;;;13.80;91.90;;;;;;5055882;28;20509;-55
2024/02/21 12:11:23;;;;;;;7.17;3.40;;;13.80;91.40;;;;;;5055561;28;20475;-55
2024/02/21 12:14:01;;;;;;;7.60;3.13;;;13.80;91.70;;;;;;5055775;28;20441;-55
2024/02/21 12:16:29;;;;;;;6.60;2.73;;;13.90;91.50;;;;;;5055533;28;20432;-54
2024/02/21 12:18:57;;;;;;;4.87;2.60;;;13.80;91.60;;;;;;5055815;28;20440;-55
2024/02/21 12:21:27;;;;;;;6.10;3.13;;;13.90;91.50;;;;;;5055705;28;20476;-55
2024/02/21 12:23:54;;;;;;;11.80;3.23;;;14.00;91.70;;;;;;5055800;28;20437;-55
2024/02/21 12:26:23;;;;;;;6.50;3.00;;;14.20;91.20;;;;;;5055586;28;20449;-55
2024/02/21 12:28:49;;;;;;;5.67;2.83;;;14.30;90.70;;;;;;5056566;28;20442;-55
2024/02/21 12:31:17;;;;;;;9.37;3.37;;;14.40;90.20;;;;;;5055541;28;20464;-55
2024/02/21 12:33:44;;;;;;;7.67;3.13;;;14.60;90.30;;;;;;5055186;28;20453;-55
2024/02/21 12:36:11;;;;;;;7.40;2.50;;;14.90;89.70;;;;;;5055220;28;20816;-54
2024/02/21 12:38:37;;;;;;;10.63;3.03;;;15.20;88.30;;;;;;5055078;28;20627;-55
2024/02/21 12:41:04;;;;;;;5.07;2.90;;;15.40;86.50;;;;;;5055373;28;20462;-55